Time;durP1;ratioP1;P1;durP2;ratioP2;P2;SDS_P1;SDS_P2;PMS_P1;PMS_P2;Temp;Humidity;BMP_temperature;BMP_pressure;BME280_temperature;BME280_humidity;BME280_pressure;Samples;Min_cycle;Max_cycle;Signal;HPM_P1;HPM_P2
2023/08/21 00:01:51;;;;;;;5.03;4.53;;;19.20;99.90;;;;;;5015220;28;20440;-72
2023/08/21 00:04:19;;;;;;;7.63;5.30;;;19.10;99.90;;;;;;5014385;28;20832;-72
2023/08/21 00:06:47;;;;;;;5.67;4.13;;;19.10;99.90;;;;;;5014943;28;20475;-72
2023/08/21 00:09:15;;;;;;;8.60;4.97;;;19.00;99.90;;;;;;5014225;28;21063;-72
2023/08/21 00:11:43;;;;;;;5.93;4.53;;;19.00;99.90;;;;;;5014044;28;20553;-72
2023/08/21 00:14:13;;;;;;;5.60;4.37;;;19.00;99.90;;;;;;5013983;28;20573;-72
2023/08/21 00:16:41;;;;;;;6.37;4.43;;;19.00;99.90;;;;;;5013960;28;20944;-72
2023/08/21 00:19:09;;;;;;;9.33;4.90;;;19.00;99.90;;;;;;5013634;28;20510;-72
2023/08/21 00:21:37;;;;;;;6.80;4.80;;;19.00;99.90;;;;;;5013566;28;20432;-72
2023/08/21 00:24:05;;;;;;;5.97;4.43;;;18.90;99.90;;;;;;5013662;28;20462;-72
2023/08/21 00:26:33;;;;;;;9.20;4.90;;;18.90;99.90;;;;;;5013630;28;20547;-72
2023/08/21 00:29:01;;;;;;;5.63;4.50;;;18.90;99.90;;;;;;5013505;28;20446;-71
2023/08/21 00:31:31;;;;;;;7.43;4.23;;;18.80;99.90;;;;;;5012221;28;20479;-72
2023/08/21 00:33:59;;;;;;;8.17;4.70;;;18.80;99.90;;;;;;5013758;28;20511;-72
2023/08/21 00:36:27;;;;;;;7.20;4.57;;;18.80;99.90;;;;;;5013548;28;20780;-72
2023/08/21 00:38:55;;;;;;;9.73;5.30;;;18.80;99.90;;;;;;5012359;28;20836;-72
2023/08/21 00:41:23;;;;;;;9.20;5.33;;;18.80;99.90;;;;;;5012517;28;20869;-72
2023/08/21 00:43:51;;;;;;;5.63;4.70;;;18.70;99.90;;;;;;5012528;28;20492;-72
2023/08/21 00:46:19;;;;;;;8.37;4.80;;;18.70;99.90;;;;;;5014371;28;20479;-72
2023/08/21 00:48:49;;;;;;;5.93;4.43;;;18.70;99.90;;;;;;5013942;28;20464;-72
2023/08/21 00:51:18;;;;;;;6.90;4.93;;;18.70;99.90;;;;;;5013497;28;20538;-72
2023/08/21 00:53:46;;;;;;;5.60;4.60;;;18.60;99.90;;;;;;5012953;28;20578;-72
2023/08/21 00:56:14;;;;;;;7.00;5.07;;;18.60;99.90;;;;;;5013732;28;20476;-72
2023/08/21 00:58:43;;;;;;;7.97;4.80;;;18.60;99.90;;;;;;5013523;28;20438;-72
2023/08/21 01:01:13;;;;;;;8.27;4.97;;;18.50;99.90;;;;;;5013727;28;20448;-71
2023/08/21 01:03:41;;;;;;;6.53;5.37;;;18.50;99.90;;;;;;5012020;28;20468;-72
2023/08/21 01:06:13;;;;;;;6.57;5.20;;;18.50;99.90;;;;;;5013575;28;20425;-72
2023/08/21 01:08:48;;;;;;;6.17;4.70;;;18.50;99.90;;;;;;5011993;28;20566;-72
2023/08/21 01:11:22;;;;;;;5.87;4.73;;;18.50;99.90;;;;;;5012049;28;20422;-72
2023/08/21 01:13:58;;;;;;;8.57;6.30;;;18.50;99.90;;;;;;5013402;28;20492;-72
2023/08/21 01:16:26;;;;;;;7.80;6.17;;;18.40;99.90;;;;;;5011899;28;20450;-72
2023/08/21 01:18:57;;;;;;;8.40;6.30;;;18.40;99.90;;;;;;5013191;28;20472;-72
2023/08/21 01:21:27;;;;;;;7.97;6.20;;;18.30;99.90;;;;;;5011888;28;20480;-72
2023/08/21 01:23:56;;;;;;;7.97;6.07;;;18.40;99.90;;;;;;5011907;28;20468;-72
2023/08/21 01:26:24;;;;;;;6.73;5.20;;;18.40;99.90;;;;;;5012077;28;20422;-72
2023/08/21 01:28:53;;;;;;;8.00;5.03;;;18.30;99.90;;;;;;5011938;28;20985;-72
2023/08/21 01:31:26;;;;;;;6.13;4.93;;;18.30;99.90;;;;;;5013041;28;20460;-72
2023/08/21 01:33:59;;;;;;;6.90;4.60;;;18.30;99.90;;;;;;5015785;28;20450;-72
2023/08/21 01:36:27;;;;;;;8.27;4.60;;;18.20;99.90;;;;;;5015537;28;20439;-72
2023/08/21 01:38:57;;;;;;;5.90;4.53;;;18.20;99.90;;;;;;5016673;28;20421;-72
2023/08/21 01:41:25;;;;;;;8.20;5.87;;;18.20;99.90;;;;;;5016791;28;20937;-72
2023/08/21 01:43:54;;;;;;;6.47;5.70;;;18.20;99.90;;;;;;5015341;28;20506;-72
2023/08/21 01:46:23;;;;;;;6.37;5.73;;;18.20;99.90;;;;;;5016884;28;20410;-72
2023/08/21 01:48:51;;;;;;;7.40;5.83;;;18.20;99.90;;;;;;5016690;28;20467;-72
2023/08/21 01:51:21;;;;;;;8.67;6.07;;;18.20;99.90;;;;;;5015116;28;20454;-72
2023/08/21 01:53:49;;;;;;;8.10;6.53;;;18.20;99.90;;;;;;5015029;28;20454;-72
2023/08/21 01:56:19;;;;;;;5.87;5.30;;;18.10;99.90;;;;;;5016214;28;20521;-72
2023/08/21 01:58:47;;;;;;;8.87;6.20;;;18.10;99.90;;;;;;5014970;28;20444;-72
2023/08/21 02:01:15;;;;;;;7.37;6.43;;;18.10;99.90;;;;;;5015116;28;20420;-72
2023/08/21 02:03:43;;;;;;;7.17;6.47;;;18.10;99.90;;;;;;5016739;28;21008;-72
2023/08/21 02:06:11;;;;;;;11.80;6.50;;;18.10;99.90;;;;;;5014899;28;20421;-72
2023/08/21 02:08:40;;;;;;;8.67;5.97;;;18.00;99.90;;;;;;5014781;28;20507;-72
2023/08/21 02:11:08;;;;;;;8.17;6.20;;;18.00;99.90;;;;;;5016096;28;20461;-72
2023/08/21 02:13:37;;;;;;;7.67;6.70;;;18.00;99.90;;;;;;5016116;28;20434;-71
2023/08/21 02:16:05;;;;;;;6.97;6.27;;;17.90;99.90;;;;;;5014794;28;21011;-71
2023/08/21 02:18:34;;;;;;;8.33;6.70;;;17.90;99.90;;;;;;5014742;28;20444;-71
2023/08/21 02:21:02;;;;;;;8.17;7.00;;;17.90;99.90;;;;;;5014571;28;20956;-71
2023/08/21 02:23:30;;;;;;;9.03;5.73;;;17.90;99.90;;;;;;5015863;28;20438;-71
2023/08/21 02:25:58;;;;;;;8.27;6.87;;;17.90;99.90;;;;;;5016275;28;20489;-71
2023/08/21 02:28:26;;;;;;;7.10;5.97;;;17.90;99.90;;;;;;5014447;28;20423;-72
2023/08/21 02:30:55;;;;;;;6.87;6.23;;;17.90;99.90;;;;;;5015746;28;20482;-72
2023/08/21 02:33:24;;;;;;;8.40;6.40;;;17.80;99.90;;;;;;5015590;28;20456;-72
2023/08/21 02:35:52;;;;;;;9.43;6.17;;;17.80;99.90;;;;;;5015610;28;20539;-72
2023/08/21 02:38:21;;;;;;;10.20;6.57;;;17.80;99.90;;;;;;5015616;28;20444;-71
2023/08/21 02:40:49;;;;;;;9.30;7.43;;;17.80;99.90;;;;;;5014221;28;20448;-72
2023/08/21 02:43:17;;;;;;;9.53;7.10;;;17.70;99.90;;;;;;5014002;28;20536;-72
2023/08/21 02:45:45;;;;;;;8.03;7.20;;;17.70;99.90;;;;;;5014328;28;20444;-72
2023/08/21 02:48:14;;;;;;;8.33;7.20;;;17.70;99.90;;;;;;5015831;28;20428;-72
2023/08/21 02:50:43;;;;;;;13.50;7.93;;;17.70;99.90;;;;;;5014193;28;20475;-72
2023/08/21 02:53:11;;;;;;;8.13;7.40;;;17.70;99.90;;;;;;5013930;28;20476;-72
2023/08/21 02:55:39;;;;;;;10.13;9.13;;;17.60;99.90;;;;;;5015306;28;20803;-72
2023/08/21 02:58:07;;;;;;;9.50;8.60;;;17.60;99.90;;;;;;5014118;28;20486;-71
2023/08/21 03:00:35;;;;;;;10.50;9.60;;;17.60;99.90;;;;;;5013948;28;20448;-72
2023/08/21 03:03:04;;;;;;;10.50;9.60;;;17.50;99.90;;;;;;5015037;28;20451;-72
2023/08/21 03:05:34;;;;;;;9.57;8.53;;;17.50;99.90;;;;;;5013784;28;20798;-72
2023/08/21 03:08:02;;;;;;;17.73;10.70;;;17.50;99.90;;;;;;5014981;28;20469;-72
2023/08/21 03:10:33;;;;;;;12.33;11.13;;;17.40;99.90;;;;;;5013963;28;20501;-72
2023/08/21 03:13:01;;;;;;;10.60;9.67;;;17.40;99.90;;;;;;5013640;28;20915;-72
2023/08/21 03:15:30;;;;;;;12.27;11.13;;;17.40;99.90;;;;;;5013547;28;20969;-72
2023/08/21 03:17:59;;;;;;;12.70;11.40;;;17.30;99.90;;;;;;5013479;28;20444;-71
2023/08/21 03:20:28;;;;;;;12.43;11.33;;;17.30;99.90;;;;;;5014787;28;20438;-72
2023/08/21 03:22:58;;;;;;;14.93;13.30;;;17.30;99.90;;;;;;5013480;28;20455;-72
2023/08/21 03:25:28;;;;;;;13.67;12.57;;;17.20;99.90;;;;;;5013313;28;20474;-72
2023/08/21 03:27:56;;;;;;;14.17;12.77;;;17.20;99.90;;;;;;5013314;28;20988;-71
2023/08/21 03:30:24;;;;;;;14.83;12.17;;;17.10;99.90;;;;;;5014669;28;20467;-71
2023/08/21 03:32:52;;;;;;;14.90;13.30;;;17.10;99.90;;;;;;5013497;28;20505;-71
2023/08/21 03:35:21;;;;;;;16.80;15.20;;;17.00;99.90;;;;;;5013382;28;20549;-71
2023/08/21 03:37:49;;;;;;;16.23;14.73;;;17.00;99.90;;;;;;5014944;28;20407;-71
2023/08/21 03:40:19;;;;;;;29.47;15.27;;;17.00;99.90;;;;;;5013406;28;20448;-71
2023/08/21 03:42:49;;;;;;;26.70;15.60;;;17.00;99.90;;;;;;5013551;28;20429;-71
2023/08/21 03:45:17;;;;;;;24.73;15.97;;;16.90;99.90;;;;;;5014261;28;20846;-71
2023/08/21 03:47:45;;;;;;;15.37;14.00;;;16.90;99.90;;;;;;5015272;28;20420;-72
2023/08/21 03:50:18;;;;;;;16.27;14.87;;;16.90;99.90;;;;;;5016058;28;20471;-71
2023/08/21 03:52:47;;;;;;;14.80;13.60;;;16.90;99.90;;;;;;5015657;28;20455;-71
2023/08/21 03:55:15;;;;;;;17.70;16.03;;;16.90;99.90;;;;;;5014941;28;20555;-71
2023/08/21 03:57:44;;;;;;;16.20;14.70;;;16.90;99.90;;;;;;5014441;28;20430;-71
2023/08/21 04:00:13;;;;;;;16.50;15.20;;;16.90;99.90;;;;;;5013067;28;20792;-71
2023/08/21 04:02:44;;;;;;;16.87;15.27;;;16.80;99.90;;;;;;5014395;28;20446;-71
2023/08/21 04:05:12;;;;;;;18.03;16.50;;;16.80;99.90;;;;;;5012702;28;20453;-71
2023/08/21 04:07:41;;;;;;;17.33;15.73;;;16.80;99.90;;;;;;5012681;28;20806;-71
2023/08/21 04:10:09;;;;;;;16.83;15.30;;;16.80;99.90;;;;;;5012633;28;20991;-71
2023/08/21 04:12:37;;;;;;;16.77;15.37;;;16.80;99.90;;;;;;5013837;28;20424;-71
2023/08/21 04:15:09;;;;;;;17.67;16.10;;;16.80;99.90;;;;;;5014088;28;20430;-71
2023/08/21 04:17:37;;;;;;;17.70;16.10;;;16.80;99.90;;;;;;5012632;28;20545;-71
2023/08/21 04:20:06;;;;;;;18.60;16.80;;;16.80;99.90;;;;;;5014546;28;20422;-71
2023/08/21 04:22:35;;;;;;;18.00;16.30;;;16.80;99.90;;;;;;5013738;28;20414;-71
2023/08/21 04:25:04;;;;;;;18.30;16.70;;;16.80;99.90;;;;;;5013578;28;20466;-71
2023/08/21 04:27:32;;;;;;;17.33;15.73;;;16.80;99.90;;;;;;5012381;28;20418;-71
2023/08/21 04:30:01;;;;;;;17.60;15.83;;;16.80;99.90;;;;;;5012498;28;20467;-71
2023/08/21 04:32:30;;;;;;;15.70;14.20;;;16.80;99.90;;;;;;5012370;28;20419;-71
2023/08/21 04:34:59;;;;;;;17.60;15.97;;;16.80;99.90;;;;;;5012251;28;20471;-71
2023/08/21 04:37:27;;;;;;;16.47;15.00;;;16.70;99.90;;;;;;5012478;28;20521;-71
2023/08/21 04:39:56;;;;;;;17.67;16.27;;;16.70;99.90;;;;;;5012237;28;20502;-71
2023/08/21 04:42:24;;;;;;;17.87;16.27;;;16.70;99.90;;;;;;5014070;28;20418;-71
2023/08/21 04:44:52;;;;;;;17.30;15.80;;;16.70;99.90;;;;;;5013516;28;20468;-71
2023/08/21 04:47:22;;;;;;;17.77;16.17;;;16.70;99.90;;;;;;5012254;28;20919;-71
2023/08/21 04:49:55;;;;;;;17.23;15.67;;;16.70;99.90;;;;;;5012191;28;20422;-71
2023/08/21 04:52:25;;;;;;;17.47;15.70;;;16.70;99.90;;;;;;5013076;28;20410;-71
2023/08/21 04:54:54;;;;;;;20.23;16.90;;;16.70;99.90;;;;;;5012202;28;20446;-71
2023/08/21 04:57:23;;;;;;;17.93;16.30;;;16.70;99.90;;;;;;5012177;28;20447;-71
2023/08/21 04:59:51;;;;;;;16.70;15.40;;;16.70;99.90;;;;;;5012252;28;20430;-71
2023/08/21 05:02:21;;;;;;;17.23;15.73;;;16.70;99.90;;;;;;5012233;28;20414;-71
2023/08/21 05:04:51;;;;;;;17.30;15.63;;;16.70;99.90;;;;;;5012122;28;20454;-71
2023/08/21 05:07:22;;;;;;;17.23;15.63;;;16.70;99.90;;;;;;5015124;28;20494;-72
2023/08/21 05:09:50;;;;;;;17.23;15.63;;;16.70;99.90;;;;;;5017200;28;20421;-71
2023/08/21 05:12:20;;;;;;;16.80;15.20;;;16.70;99.90;;;;;;5015995;28;20816;-71
2023/08/21 05:14:48;;;;;;;19.53;17.67;;;16.70;99.90;;;;;;5017118;28;20525;-71
2023/08/21 05:17:17;;;;;;;17.53;15.77;;;16.70;99.90;;;;;;5015911;28;20966;-71
2023/08/21 05:19:45;;;;;;;17.23;15.63;;;16.70;99.90;;;;;;5016182;28;20827;-71
2023/08/21 05:22:13;;;;;;;17.63;16.03;;;16.70;99.90;;;;;;5017034;28;20461;-71
2023/08/21 05:24:42;;;;;;;17.27;15.67;;;16.70;99.90;;;;;;5016961;28;21066;-71
2023/08/21 05:27:10;;;;;;;17.30;15.70;;;16.80;99.90;;;;;;5015772;28;20426;-71
2023/08/21 05:29:38;;;;;;;19.33;17.33;;;16.80;99.90;;;;;;5017400;28;20490;-71
2023/08/21 05:32:07;;;;;;;18.67;16.90;;;16.80;99.90;;;;;;5015516;28;20479;-71
2023/08/21 05:34:36;;;;;;;15.57;13.97;;;16.80;99.90;;;;;;5015480;28;20458;-71
2023/08/21 05:37:05;;;;;;;18.13;16.60;;;16.80;99.90;;;;;;5015508;28;20871;-71
2023/08/21 05:39:33;;;;;;;17.27;15.50;;;16.80;99.90;;;;;;5016758;28;20506;-71
2023/08/21 05:42:03;;;;;;;17.47;16.03;;;16.80;99.90;;;;;;5015587;28;20539;-75
2023/08/21 05:44:32;;;;;;;17.37;15.70;;;16.90;99.90;;;;;;5015387;28;20442;-72
2023/08/21 05:47:00;;;;;;;17.60;16.00;;;16.90;99.90;;;;;;5015404;28;20530;-73
2023/08/21 05:49:28;;;;;;;12.67;11.57;;;16.90;99.90;;;;;;5016874;28;20783;-73
2023/08/21 05:51:58;;;;;;;17.33;15.50;;;16.90;99.90;;;;;;5016439;28;20807;-72
2023/08/21 05:54:26;;;;;;;20.03;18.10;;;17.00;99.90;;;;;;5015424;28;20554;-72
2023/08/21 05:56:56;;;;;;;21.07;18.87;;;17.00;99.90;;;;;;5015185;28;20939;-72
2023/08/21 05:59:31;;;;;;;24.73;22.00;;;17.00;99.90;;;;;;5015251;28;20451;-72
2023/08/21 06:02:02;;;;;;;28.37;25.37;;;17.10;99.90;;;;;;5015419;28;20522;-72
2023/08/21 06:04:31;;;;;;;27.20;24.50;;;17.10;99.90;;;;;;5015001;28;20989;-72
2023/08/21 06:07:02;;;;;;;30.00;27.07;;;17.20;99.90;;;;;;5014914;28;20896;-72
2023/08/21 06:09:31;;;;;;;21.33;19.30;;;17.30;99.90;;;;;;5014892;28;20422;-72
2023/08/21 06:12:00;;;;;;;21.13;18.77;;;17.40;99.90;;;;;;5014893;28;20442;-72
2023/08/21 06:14:30;;;;;;;29.80;25.33;;;17.60;99.90;;;;;;5015037;28;20477;-72
2023/08/21 06:17:02;;;;;;;25.30;22.60;;;17.80;99.90;;;;;;5015098;28;20440;-72
2023/08/21 06:19:31;;;;;;;18.00;16.07;;;18.00;99.90;;;;;;5014370;28;20565;-72
2023/08/21 06:21:59;;;;;;;19.53;14.17;;;18.20;99.90;;;;;;5016054;28;20435;-72
2023/08/21 06:24:28;;;;;;;19.80;13.80;;;18.40;99.90;;;;;;5015919;28;20534;-72
2023/08/21 06:27:01;;;;;;;16.03;13.20;;;18.60;99.90;;;;;;5015080;28;20456;-73
2023/08/21 06:29:31;;;;;;;19.60;17.43;;;18.70;99.90;;;;;;5014761;28;20444;-73
2023/08/21 06:31:59;;;;;;;16.33;13.50;;;18.90;99.90;;;;;;5014466;28;20472;-73
2023/08/21 06:34:28;;;;;;;14.17;12.03;;;19.10;99.90;;;;;;5015306;28;20468;-73
2023/08/21 06:36:56;;;;;;;16.77;12.70;;;19.30;99.90;;;;;;5014880;28;20448;-73
2023/08/21 06:39:26;;;;;;;18.27;12.37;;;19.50;99.90;;;;;;5021819;28;20418;-73
2023/08/21 06:41:54;;;;;;;18.03;10.90;;;19.70;99.90;;;;;;5020456;28;20444;-74
2023/08/21 06:44:33;;;;;;;13.40;9.87;;;19.80;99.90;;;;;;5015939;28;20459;-71
2023/08/21 06:47:01;;;;;;;11.40;9.33;;;20.00;99.90;;;;;;5017717;28;20474;-72
2023/08/21 06:49:30;;;;;;;17.03;11.17;;;20.20;99.90;;;;;;5016257;28;20530;-73
2023/08/21 06:51:58;;;;;;;13.47;10.80;;;20.30;99.90;;;;;;5016066;28;20869;-73
2023/08/21 06:54:26;;;;;;;11.07;10.00;;;20.50;99.90;;;;;;5019666;28;20464;-73
2023/08/21 06:56:54;;;;;;;10.90;9.17;;;20.60;99.90;;;;;;5017366;28;20506;-73
2023/08/21 06:59:22;;;;;;;11.43;8.00;;;20.70;99.90;;;;;;5016024;28;20539;-73
2023/08/21 07:01:51;;;;;;;14.10;8.10;;;20.80;99.90;;;;;;5017238;28;20442;-73
2023/08/21 07:04:18;;;;;;;13.03;7.47;;;20.90;99.90;;;;;;5016854;28;20460;-73
2023/08/21 07:06:47;;;;;;;12.07;6.40;;;21.10;99.90;;;;;;5015747;28;20471;-73
2023/08/21 07:09:15;;;;;;;10.73;6.63;;;21.20;99.90;;;;;;5015702;28;20796;-73
2023/08/21 07:11:46;;;;;;;11.93;6.00;;;21.30;99.90;;;;;;5014382;28;20484;-73
2023/08/21 07:14:14;;;;;;;10.60;5.83;;;21.40;99.90;;;;;;5015676;28;20488;-74
2023/08/21 07:16:42;;;;;;;8.90;5.97;;;21.40;99.90;;;;;;5015544;28;20446;-73
2023/08/21 07:19:12;;;;;;;10.27;5.87;;;21.50;99.90;;;;;;5015643;28;20933;-73
2023/08/21 07:21:40;;;;;;;14.80;5.50;;;21.60;99.90;;;;;;5015456;28;20444;-73
2023/08/21 07:24:08;;;;;;;11.30;4.60;;;21.70;99.90;;;;;;5015553;28;21014;-73
2023/08/21 07:26:36;;;;;;;12.03;5.27;;;21.80;99.90;;;;;;5015229;28;20450;-73
2023/08/21 07:29:05;;;;;;;8.97;4.43;;;21.80;99.90;;;;;;5014654;28;20432;-73
2023/08/21 07:31:33;;;;;;;5.70;3.03;;;21.90;99.90;;;;;;5015084;28;20529;-72
2023/08/21 07:34:01;;;;;;;7.43;3.60;;;22.00;99.90;;;;;;5014873;28;20471;-72
2023/08/21 07:36:32;;;;;;;9.63;3.90;;;22.10;99.90;;;;;;5015143;28;20447;-72
2023/08/21 07:39:00;;;;;;;4.13;3.40;;;22.10;99.90;;;;;;5015369;28;20428;-72
2023/08/21 07:41:28;;;;;;;6.27;3.53;;;22.20;99.90;;;;;;5015554;28;20538;-73
2023/08/21 07:43:57;;;;;;;7.60;3.50;;;22.20;99.90;;;;;;5014769;28;20907;-73
2023/08/21 07:46:25;;;;;;;8.70;3.77;;;22.30;99.90;;;;;;5015034;28;20519;-73
2023/08/21 07:48:54;;;;;;;5.07;2.93;;;22.30;99.90;;;;;;5015157;28;20475;-73
2023/08/21 07:51:22;;;;;;;5.23;2.77;;;22.40;99.90;;;;;;5015470;28;20482;-73
2023/08/21 07:53:52;;;;;;;10.20;3.63;;;22.40;99.90;;;;;;5014390;28;20518;-73
2023/08/21 07:56:20;;;;;;;4.70;2.80;;;22.50;99.90;;;;;;5014421;28;20455;-73
2023/08/21 07:58:48;;;;;;;7.57;3.40;;;22.50;99.90;;;;;;5014935;28;20440;-73
2023/08/21 08:01:16;;;;;;;5.77;3.00;;;22.50;99.90;;;;;;5014608;28;20436;-73
2023/08/21 08:03:44;;;;;;;4.50;2.37;;;22.60;99.90;;;;;;5014793;28;20477;-73
2023/08/21 08:06:12;;;;;;;5.67;2.40;;;22.60;99.90;;;;;;5014844;28;20520;-73
2023/08/21 08:08:40;;;;;;;5.80;2.50;;;22.60;99.90;;;;;;5014420;28;20451;-73
2023/08/21 08:11:10;;;;;;;4.73;2.40;;;22.60;99.90;;;;;;5014105;28;20466;-73
2023/08/21 08:13:38;;;;;;;5.83;2.13;;;22.70;99.90;;;;;;5014356;28;20851;-73
2023/08/21 08:16:06;;;;;;;4.67;2.27;;;22.70;99.90;;;;;;5014323;28;20872;-72
2023/08/21 08:18:34;;;;;;;4.83;2.43;;;22.70;99.90;;;;;;5014240;28;20941;-73
2023/08/21 08:21:02;;;;;;;4.80;2.20;;;22.70;99.90;;;;;;5014663;28;20440;-73
2023/08/21 08:23:30;;;;;;;4.73;1.83;;;22.70;99.90;;;;;;5014499;28;20456;-73
2023/08/21 08:25:58;;;;;;;4.70;2.10;;;22.70;99.90;;;;;;5014148;28;20984;-73
2023/08/21 08:28:28;;;;;;;5.03;2.20;;;22.80;99.90;;;;;;5012806;28;20543;-73
2023/08/21 08:30:57;;;;;;;7.00;2.43;;;22.90;99.90;;;;;;5013211;28;20813;-73
2023/08/21 08:33:25;;;;;;;6.23;1.80;;;22.90;99.90;;;;;;5014309;28;20479;-72
2023/08/21 08:35:53;;;;;;;5.47;2.13;;;23.00;99.90;;;;;;5014184;28;20458;-75
2023/08/21 08:38:21;;;;;;;4.40;1.73;;;23.00;99.90;;;;;;5014521;28;20439;-74
2023/08/21 08:40:54;;;;;;;3.73;2.27;;;23.00;99.90;;;;;;5013167;28;20967;-74
2023/08/21 08:43:24;;;;;;;3.93;1.60;;;23.10;99.90;;;;;;5014747;28;20422;-74
2023/08/21 08:45:57;;;;;;;2.60;1.50;;;23.10;99.90;;;;;;5015738;28;20809;-74
2023/08/21 08:48:26;;;;;;;6.63;2.30;;;23.10;99.90;;;;;;5015168;28;20429;-74
2023/08/21 08:50:55;;;;;;;4.17;2.17;;;23.10;99.90;;;;;;5014240;28;20436;-74
2023/08/21 08:53:28;;;;;;;6.37;2.30;;;23.00;99.90;;;;;;5014403;28;20489;-74
2023/08/21 08:55:56;;;;;;;3.13;1.53;;;23.00;99.90;;;;;;5014974;28;20451;-74
2023/08/21 08:58:24;;;;;;;4.57;2.20;;;23.00;99.90;;;;;;5014960;28;20867;-74
2023/08/21 09:00:53;;;;;;;4.80;1.80;;;23.10;99.90;;;;;;5012931;28;20468;-74
2023/08/21 09:03:22;;;;;;;4.57;2.10;;;23.10;99.90;;;;;;5012648;28;20432;-75
2023/08/21 09:05:50;;;;;;;4.23;1.90;;;23.20;99.90;;;;;;5014648;28;20431;-74
2023/08/21 09:08:18;;;;;;;5.03;1.87;;;23.20;99.90;;;;;;5014272;28;20474;-75
2023/08/21 09:10:46;;;;;;;3.57;2.30;;;23.20;99.90;;;;;;5014314;28;20535;-74
2023/08/21 09:13:16;;;;;;;5.17;2.53;;;23.30;99.90;;;;;;5014065;28;20559;-75
2023/08/21 09:15:46;;;;;;;4.63;2.10;;;23.30;99.90;;;;;;5012748;28;20448;-74
2023/08/21 09:18:16;;;;;;;5.37;2.57;;;23.40;99.90;;;;;;5018139;28;20459;-74
2023/08/21 09:20:44;;;;;;;5.03;2.20;;;23.40;99.90;;;;;;5016846;28;20782;-75
2023/08/21 09:23:16;;;;;;;4.80;1.70;;;23.40;99.90;;;;;;5014504;28;20432;-76
2023/08/21 09:25:47;;;;;;;3.33;1.73;;;23.50;99.90;;;;;;5015423;28;20448;-77
2023/08/21 09:28:18;;;;;;;5.17;2.00;;;23.50;99.90;;;;;;5014876;28;20440;-77
2023/08/21 09:30:48;;;;;;;3.47;1.80;;;23.60;99.90;;;;;;5014506;28;20411;-77
2023/08/21 09:33:22;;;;;;;4.67;1.63;;;23.70;99.90;;;;;;5013152;28;20981;-77
2023/08/21 09:35:53;;;;;;;3.70;1.77;;;23.70;99.90;;;;;;5014866;28;20420;-76
2023/08/21 09:38:21;;;;;;;3.33;1.83;;;23.70;99.90;;;;;;5014318;28;20443;-77
2023/08/21 09:40:54;;;;;;;3.70;1.60;;;23.70;99.90;;;;;;5013108;28;20443;-77
2023/08/21 09:43:24;;;;;;;3.50;1.70;;;23.80;99.90;;;;;;5013036;28;20436;-77
2023/08/21 09:45:55;;;;;;;5.30;1.97;;;23.80;99.90;;;;;;5013975;28;20442;-76
2023/08/21 09:48:27;;;;;;;3.03;1.70;;;23.80;99.90;;;;;;5014371;28;20789;-77
2023/08/21 09:50:55;;;;;;;2.77;2.07;;;23.90;99.90;;;;;;5012935;28;20478;-76
2023/08/21 09:53:24;;;;;;;3.40;1.50;;;23.90;99.90;;;;;;5015336;28;20473;-76
2023/08/21 09:55:54;;;;;;;3.23;1.73;;;23.90;99.90;;;;;;5016409;28;20459;-76
2023/08/21 09:58:23;;;;;;;2.30;1.30;;;23.90;99.90;;;;;;5016341;28;20807;-76
2023/08/21 10:00:53;;;;;;;3.57;1.70;;;24.00;99.90;;;;;;5017192;28;20447;-76
2023/08/21 10:03:24;;;;;;;4.33;1.70;;;24.00;99.90;;;;;;5016221;28;20526;-77
2023/08/21 10:05:58;;;;;;;3.27;1.57;;;24.10;99.90;;;;;;5017254;28;20902;-76
2023/08/21 10:08:28;;;;;;;2.30;1.40;;;24.10;99.90;;;;;;5017642;28;20430;-76
2023/08/21 10:10:57;;;;;;;2.67;1.40;;;24.10;99.90;;;;;;5016675;28;20424;-76
2023/08/21 10:13:26;;;;;;;3.43;1.53;;;24.20;99.90;;;;;;5015653;28;20483;-76
2023/08/21 10:15:55;;;;;;;4.90;1.37;;;24.20;99.90;;;;;;5017226;28;20440;-77
2023/08/21 10:18:25;;;;;;;3.97;1.80;;;24.20;99.90;;;;;;5016937;28;20436;-77
2023/08/21 10:20:54;;;;;;;3.70;1.70;;;24.20;99.90;;;;;;5017155;28;20435;-76
2023/08/21 10:23:26;;;;;;;3.10;1.67;;;24.20;99.90;;;;;;5016978;28;20436;-76
2023/08/21 10:25:59;;;;;;;2.23;1.30;;;24.30;99.90;;;;;;5017082;28;20420;-76
2023/08/21 10:28:50;;;;;;;3.23;1.30;;;24.40;99.90;;;;;;5015782;28;20447;-76
2023/08/21 10:31:33;;;;;;;2.73;1.50;;;24.50;99.90;;;;;;5015765;28;20440;-76
2023/08/21 10:34:05;;;;;;;3.77;1.83;;;24.60;99.90;;;;;;5017083;28;20501;-76
2023/08/21 10:37:07;;;;;;;2.90;1.50;;;24.60;99.90;;;;;;5016973;28;20454;-76
2023/08/21 10:39:37;;;;;;;4.97;1.60;;;24.70;99.90;;;;;;5017055;28;20796;-76
2023/08/21 10:42:08;;;;;;;3.30;1.63;;;24.80;99.90;;;;;;5015495;28;20498;-76
2023/08/21 10:44:37;;;;;;;3.93;1.60;;;24.80;99.90;;;;;;5016522;28;20448;-76
2023/08/21 10:47:16;;;;;;;4.47;1.50;;;24.90;99.90;;;;;;5016518;28;20804;-76
2023/08/21 10:49:48;;;;;;;2.40;1.53;;;24.90;99.90;;;;;;5015758;28;20845;-75
2023/08/21 10:52:20;;;;;;;4.00;2.10;;;24.90;99.90;;;;;;5014124;28;20846;-76
2023/08/21 10:54:50;;;;;;;3.80;2.10;;;24.90;99.90;;;;;;5013934;28;20973;-76
2023/08/21 10:57:19;;;;;;;3.20;1.40;;;24.90;99.90;;;;;;5014105;28;20455;-76
2023/08/21 10:59:56;;;;;;;3.10;1.70;;;24.90;99.90;;;;;;5014053;28;20953;-76
2023/08/21 11:02:25;;;;;;;4.60;1.67;;;24.90;99.90;;;;;;5015490;28;20420;-76
2023/08/21 11:04:55;;;;;;;3.80;1.70;;;24.80;99.90;;;;;;5015182;28;20456;-76
2023/08/21 11:07:23;;;;;;;2.80;1.70;;;24.90;99.90;;;;;;5015404;28;20464;-76
2023/08/21 11:09:52;;;;;;;2.77;1.57;;;24.90;99.90;;;;;;5015122;28;20439;-76
2023/08/21 11:12:22;;;;;;;3.40;1.50;;;24.90;99.90;;;;;;5015038;28;20519;-76
2023/08/21 11:14:51;;;;;;;2.67;1.30;;;24.90;99.90;;;;;;5013813;28;20479;-76
2023/08/21 11:17:19;;;;;;;2.90;1.43;;;25.00;99.90;;;;;;5013507;28;20448;-76
2023/08/21 11:19:49;;;;;;;2.47;1.43;;;25.00;99.90;;;;;;5014883;28;20436;-76
2023/08/21 11:22:19;;;;;;;4.23;1.50;;;25.00;99.90;;;;;;5015646;28;20420;-77
2023/08/21 11:24:50;;;;;;;3.20;1.50;;;25.00;99.90;;;;;;5014949;28;20460;-76
2023/08/21 11:27:20;;;;;;;2.77;1.63;;;25.10;99.90;;;;;;5014805;28;20420;-76
2023/08/21 11:29:53;;;;;;;3.60;1.63;;;25.10;99.90;;;;;;5014803;28;20512;-76
2023/08/21 11:32:23;;;;;;;3.63;1.73;;;25.10;99.90;;;;;;5014782;28;20464;-76
2023/08/21 11:34:54;;;;;;;4.63;1.80;;;25.10;99.90;;;;;;5014658;28;20479;-75
2023/08/21 11:37:27;;;;;;;3.27;1.67;;;25.10;99.90;;;;;;5013259;28;20502;-76
2023/08/21 11:39:56;;;;;;;2.10;1.50;;;25.20;99.90;;;;;;5015009;28;20424;-76
2023/08/21 11:42:31;;;;;;;3.83;1.70;;;25.20;99.90;;;;;;5014492;28;20447;-76
2023/08/21 11:45:00;;;;;;;2.93;1.50;;;25.20;99.90;;;;;;5013256;28;20472;-76
2023/08/21 11:47:33;;;;;;;5.00;1.40;;;25.30;99.90;;;;;;5014651;28;20490;-76
2023/08/21 11:50:08;;;;;;;5.07;1.67;;;25.30;99.90;;;;;;5013491;28;20440;-76
2023/08/21 11:52:39;;;;;;;2.70;1.60;;;25.30;99.90;;;;;;5013414;28;20439;-76
2023/08/21 11:55:11;;;;;;;2.70;1.73;;;25.40;99.90;;;;;;5016390;28;20475;-77
2023/08/21 11:57:48;;;;;;;3.63;1.77;;;25.40;99.90;;;;;;5014780;28;20439;-76
2023/08/21 12:00:18;;;;;;;3.13;1.50;;;25.40;99.90;;;;;;5013552;28;20494;-76
2023/08/21 12:02:56;;;;;;;3.47;1.70;;;25.50;99.90;;;;;;5014876;28;20416;-76
2023/08/21 12:05:24;;;;;;;3.07;1.33;;;25.50;99.90;;;;;;5014350;28;20459;-76
2023/08/21 12:07:54;;;;;;;2.17;1.40;;;25.50;99.90;;;;;;5014382;28;20439;-76
2023/08/21 12:10:26;;;;;;;2.73;1.50;;;25.60;99.90;;;;;;5014140;28;20440;-76
2023/08/21 12:12:55;;;;;;;2.93;1.43;;;25.60;99.90;;;;;;5014111;28;20820;-76
2023/08/21 12:15:23;;;;;;;2.57;1.50;;;25.60;99.90;;;;;;5013457;28;20480;-76
2023/08/21 12:17:52;;;;;;;2.67;1.63;;;25.70;99.90;;;;;;5012682;28;20566;-76
2023/08/21 12:20:21;;;;;;;2.63;1.77;;;25.70;99.90;;;;;;5013886;28;20448;-76
2023/08/21 12:22:49;;;;;;;3.70;2.07;;;25.70;99.90;;;;;;5014128;28;20436;-76
2023/08/21 12:25:19;;;;;;;5.60;1.90;;;25.80;99.90;;;;;;5013832;28;20468;-76
2023/08/21 12:27:47;;;;;;;3.50;1.40;;;25.80;99.90;;;;;;5014299;28;20435;-76
2023/08/21 12:30:28;;;;;;;3.47;1.57;;;25.80;99.90;;;;;;5013780;28;20515;-76
2023/08/21 12:32:56;;;;;;;2.57;1.67;;;25.80;99.90;;;;;;5013941;28;20518;-76
2023/08/21 12:35:36;;;;;;;2.37;1.40;;;25.80;99.90;;;;;;5012365;28;20464;-76
2023/08/21 12:38:12;;;;;;;2.80;1.83;;;25.80;99.90;;;;;;5013587;28;20486;-76
2023/08/21 12:40:42;;;;;;;3.10;1.50;;;25.90;99.90;;;;;;5013868;28;20431;-76
2023/08/21 12:43:10;;;;;;;2.67;1.93;;;25.90;99.90;;;;;;5013753;28;20932;-76
2023/08/21 12:45:38;;;;;;;4.93;1.80;;;25.90;99.80;;;;;;5013904;28;20986;-76
2023/08/21 12:48:08;;;;;;;3.33;1.57;;;25.90;99.70;;;;;;5013599;28;20436;-76
2023/08/21 12:50:36;;;;;;;3.47;1.83;;;25.90;99.60;;;;;;5012222;28;20872;-76
2023/08/21 12:53:04;;;;;;;3.77;1.60;;;25.90;99.60;;;;;;5013508;28;20451;-76